Columbiana, AL (35051)

4:15 AM CDT on September 25, 2016 (GMT -0500)
Columbiana/Kingdom | | Change Station

Elev 423 ft 33.16 °N, 86.53 °W | Updated 23 seconds ago

Clear
Clear
65.8 °F
Feels Like 65.8 °F
N
0.0
Wind Variable Wind from SE

Today
High -- | Low -- °F
--% Chance of Precip.
Yesterday
High -- | Low -- °F
Precip. -- in
Pressure 30.01 in
Visibility 9.0 miles
Clouds Clear
Dew Point 64 °F
Humidity 95%
Rainfall 0.00 in
Snow Depth Not available.
6:36 AM 6:38 PM
Waning Crescent, 29% visible
METAR KEET 250853Z AUTO 00000KT 9SM CLR 21/18 A3004 RMK AO2 SLP163 T02060183 53001
Pressure 30.01 in
Visibility 9.0 miles
Clouds Clear
Dew Point 64 °F
Humidity 95%
Rainfall 0.00 in
Snow Depth Not available.
6:36 AM 6:38 PM
Waning Crescent, 29% visible
METAR KEET 250853Z AUTO 00000KT 9SM CLR 21/18 A3004 RMK AO2 SLP163 T02060183 53001

10-Day Weather Forecast

Almanac

Astronomy

Sep. 25, 2016 Rise Set
Actual Time
Civil Twilight
Nautical Twilight
Astronomical Twilight
Moon
Length of Visible Light
Length of Day
Tomorrow will be .
, % of the Moon is Illuminated

Today's Extremes

State Highs State Lows

Community

WunderPhotos

Upload Photos

1,941,554 photos uploaded!

WunderBlog® & News

Nearby

Air Quality

  Air Quality AQ Index Pollutant
Not available.

Snow Depth

Station Depth Elevation

Earthquake Activity

City Distance Mag. Time & Date
Minimum magnitude displayed is 2.5.

Coastal Water Temperatures

Place Temperature

Stations

Nearby Weather Stations

Station Location Temp. Windchill Dew Point Humidity Wind Precip. Elev Updated Type
                   

Watches & Warnings

There are currently no watches in effect.